Time;durP1;ratioP1;P1;durP2;ratioP2;P2;SDS_P1;SDS_P2;PMS_P1;PMS_P2;Temp;Humidity;BMP_temperature;BMP_pressure;BME280_temperature;BME280_humidity;BME280_pressure;Samples;Min_cycle;Max_cycle;Signal;HPM_P1;HPM_P2
2021/05/11 00:01:18;;;;;;;3.17;1.97;;;;;;;;;;5073968;28;20472;-49
2021/05/11 00:03:46;;;;;;;3.07;1.90;;;;;;;;;;5073830;28;20507;-58
2021/05/11 00:06:15;;;;;;;3.67;2.07;;;;;;;;;;5074061;28;20449;-57
2021/05/11 00:08:42;;;;;;;3.60;2.30;;;;;;;;;;5073460;28;20461;-52
2021/05/11 00:11:09;;;;;;;3.87;2.30;;;;;;;;;;5072486;28;20465;-57
2021/05/11 00:13:37;;;;;;;3.60;2.07;;;;;;;;;;5073449;28;20560;-52
2021/05/11 00:16:04;;;;;;;3.30;2.00;;;;;;;;;;5072942;28;20445;-51
2021/05/11 00:18:32;;;;;;;4.47;2.30;;;;;;;;;;5075007;28;20428;-56
2021/05/11 00:21:01;;;;;;;3.63;2.00;;;;;;;;;;5075417;28;20443;-51
2021/05/11 00:26:38;;;;;;;4.37;2.20;;;;;;;;;;5071425;28;20461;-50
2021/05/11 00:29:05;;;;;;;2.93;1.90;;;;;;;;;;5073233;28;20476;-56
2021/05/11 00:31:32;;;;;;;3.97;2.50;;;;;;;;;;5073121;28;20468;-52
2021/05/11 00:34:19;;;;;;;3.87;2.40;;;;;;;;;;5073272;28;20501;-54
2021/05/11 00:36:45;;;;;;;3.80;2.80;;;;;;;;;;5073400;28;20491;-52
2021/05/11 00:39:12;;;;;;;4.03;2.73;;;;;;;;;;5073822;28;20441;-58
2021/05/11 00:41:49;;;;;;;5.00;3.00;;;;;;;;;;5072876;28;20467;-52
2021/05/11 00:44:23;;;;;;;4.70;3.50;;;;;;;;;;5075334;28;20457;-55
2021/05/11 00:46:56;;;;;;;3.93;2.77;;;;;;;;;;5074111;28;20464;-50
2021/05/11 00:52:27;;;;;;;4.27;3.13;;;;;;;;;;5088511;28;20496;-55
2021/05/11 00:54:54;;;;;;;5.93;3.27;;;;;;;;;;5093681;28;20466;-57
2021/05/11 00:57:23;;;;;;;4.17;2.77;;;;;;;;;;5093831;28;20479;-54
2021/05/11 00:59:52;;;;;;;4.00;2.33;;;;;;;;;;5093340;28;20494;-54
2021/05/11 01:02:18;;;;;;;3.27;2.63;;;;;;;;;;5093525;28;20460;-57
2021/05/11 01:05:18;;;;;;;4.60;3.40;;;;;;;;;;5093470;28;20494;-55
2021/05/11 01:07:46;;;;;;;4.40;3.30;;;;;;;;;;5093141;28;20520;-55
2021/05/11 01:10:13;;;;;;;4.57;3.10;;;;;;;;;;5093561;28;20463;-57
2021/05/11 01:12:41;;;;;;;5.30;3.30;;;;;;;;;;5093436;28;20514;-58
2021/05/11 01:15:10;;;;;;;6.80;3.90;;;;;;;;;;5093751;28;20456;-58
2021/05/11 01:17:38;;;;;;;4.17;3.50;;;;;;;;;;5093143;28;20459;-56
2021/05/11 01:20:14;;;;;;;8.13;3.50;;;;;;;;;;5093590;28;20447;-55
2021/05/11 01:23:05;;;;;;;5.10;3.30;;;;;;;;;;5095635;28;20464;-53
2021/05/11 01:25:33;;;;;;;6.17;3.33;;;;;;;;;;5076450;28;20942;-54
2021/05/11 01:28:08;;;;;;;5.40;3.70;;;;;;;;;;5077825;28;20464;-50
2021/05/11 01:47:48;;;;;;;7.60;4.37;;;;;;;;;;5041788;28;20512;-53
2021/05/11 01:50:22;;;;;;;6.03;3.57;;;;;;;;;;5077129;28;20462;-56
2021/05/11 01:53:04;;;;;;;5.77;4.20;;;;;;;;;;5076812;28;20768;-52
2021/05/11 02:23:11;;;;;;;7.07;4.50;;;;;;;;;;5076089;28;20431;-54
2021/05/11 02:25:47;;;;;;;8.03;4.40;;;;;;;;;;5076764;28;20464;-52
2021/05/11 02:28:17;;;;;;;5.93;4.80;;;;;;;;;;5079157;28;20522;-55
2021/05/11 02:30:44;;;;;;;6.53;4.80;;;;;;;;;;5095979;28;20520;-56
2021/05/11 02:33:18;;;;;;;5.90;4.00;;;;;;;;;;5096244;28;20492;-53
2021/05/11 02:35:45;;;;;;;7.33;5.00;;;;;;;;;;5096163;28;20444;-56
2021/05/11 02:38:12;;;;;;;6.13;4.00;;;;;;;;;;5096302;28;20425;-58
2021/05/11 02:40:48;;;;;;;5.70;4.37;;;;;;;;;;5090512;28;20468;-55
2021/05/11 02:43:23;;;;;;;10.00;4.50;;;;;;;;;;5077726;28;20461;-52
2021/05/11 02:45:49;;;;;;;5.50;4.20;;;;;;;;;;5076706;28;20490;-54
2021/05/11 02:48:31;;;;;;;4.70;4.20;;;;;;;;;;5076445;28;20473;-55
2021/05/11 02:50:58;;;;;;;4.90;3.50;;;;;;;;;;5087726;28;20500;-53
2021/05/11 02:53:24;;;;;;;6.60;4.70;;;;;;;;;;5096264;28;20479;-53
2021/05/11 02:56:06;;;;;;;6.80;4.40;;;;;;;;;;5096871;28;20467;-51
2021/05/11 02:58:35;;;;;;;6.13;4.30;;;;;;;;;;5096677;28;20467;-59
2021/05/11 03:01:03;;;;;;;5.10;3.90;;;;;;;;;;5078892;28;20444;-52
2021/05/11 03:03:40;;;;;;;6.40;4.37;;;;;;;;;;5097040;28;20448;-55
2021/05/11 03:06:07;;;;;;;6.83;4.63;;;;;;;;;;5076554;28;20472;-52
2021/05/11 03:08:34;;;;;;;10.00;4.17;;;;;;;;;;5076494;28;20464;-51
2021/05/11 03:11:01;;;;;;;8.53;4.90;;;;;;;;;;5082370;28;20448;-59
2021/05/11 03:13:28;;;;;;;16.47;5.23;;;;;;;;;;5086871;28;20481;-55
2021/05/11 03:15:58;;;;;;;5.97;4.13;;;;;;;;;;5076401;28;20452;-53
2021/05/11 03:18:27;;;;;;;6.97;5.33;;;;;;;;;;5076732;28;20441;-55
2021/05/11 03:20:54;;;;;;;6.47;4.73;;;;;;;;;;5076057;28;20501;-56
2021/05/11 03:23:26;;;;;;;5.80;4.87;;;;;;;;;;5075819;28;20445;-57
2021/05/11 03:25:53;;;;;;;6.77;4.93;;;;;;;;;;5087035;28;20499;-57
2021/05/11 03:28:19;;;;;;;7.67;6.33;;;;;;;;;;5094980;28;20460;-52
2021/05/11 03:30:56;;;;;;;10.60;5.07;;;;;;;;;;5095298;28;20455;-52
2021/05/11 03:33:23;;;;;;;8.00;5.37;;;;;;;;;;5092944;28;20500;-53
2021/05/11 03:35:50;;;;;;;7.37;6.20;;;;;;;;;;5095963;28;20594;-53
2021/05/11 03:38:44;;;;;;;6.70;5.70;;;;;;;;;;5095628;28;20444;-53
2021/05/11 03:41:12;;;;;;;6.63;5.57;;;;;;;;;;5087964;28;20452;-56
2021/05/11 03:43:49;;;;;;;5.90;5.27;;;;;;;;;;5094115;28;20459;-60
2021/05/11 03:46:18;;;;;;;7.60;5.40;;;;;;;;;;5094463;28;20463;-60
2021/05/11 03:48:46;;;;;;;13.13;6.13;;;;;;;;;;5092724;28;20459;-52
2021/05/11 03:51:16;;;;;;;7.70;5.33;;;;;;;;;;5094974;28;20461;-55
2021/05/11 03:56:46;;;;;;;6.03;5.43;;;;;;;;;;5093047;28;20458;-54
2021/05/11 03:59:13;;;;;;;5.60;5.03;;;;;;;;;;5095567;28;20440;-50
2021/05/11 04:02:13;;;;;;;9.23;6.00;;;;;;;;;;5095202;28;20444;-54
2021/05/11 04:04:41;;;;;;;8.47;6.60;;;;;;;;;;5074703;28;20527;-52
2021/05/11 04:07:08;;;;;;;7.60;5.90;;;;;;;;;;5082819;28;20432;-57
2021/05/11 04:13:15;;;;;;;10.17;7.97;;;;;;;;;;5075222;28;20420;-52
2021/05/11 04:18:33;;;;;;;9.43;8.17;;;;;;;;;;5080118;28;20444;-53
2021/05/11 04:21:01;;;;;;;6.83;6.03;;;;;;;;;;5094395;28;20480;-52
2021/05/11 04:23:28;;;;;;;10.57;7.63;;;;;;;;;;5094820;28;20467;-56
2021/05/11 04:28:58;;;;;;;10.20;7.03;;;;;;;;;;5095057;28;20422;-55
2021/05/11 04:31:25;;;;;;;9.80;8.00;;;;;;;;;;5094834;28;20494;-59
2021/05/11 04:33:52;;;;;;;10.97;8.67;;;;;;;;;;5094899;28;20488;-56
2021/05/11 04:36:39;;;;;;;7.80;6.40;;;;;;;;;;5094976;28;20432;-54
2021/05/11 04:39:06;;;;;;;7.83;6.70;;;;;;;;;;5094620;28;20475;-56
2021/05/11 04:41:33;;;;;;;11.00;7.43;;;;;;;;;;5094233;28;20489;-47
2021/05/11 04:44:09;;;;;;;8.90;7.13;;;;;;;;;;5093695;28;20452;-56
2021/05/11 04:46:44;;;;;;;10.10;8.30;;;;;;;;;;5094743;28;20475;-54
2021/05/11 04:49:11;;;;;;;7.03;6.10;;;;;;;;;;5095182;28;20447;-55
2021/05/11 04:51:46;;;;;;;8.83;7.00;;;;;;;;;;5094729;28;20441;-54
2021/05/11 04:54:16;;;;;;;6.87;6.10;;;;;;;;;;5094831;28;20495;-57
2021/05/11 04:56:45;;;;;;;9.03;6.47;;;;;;;;;;5095328;28;20444;-57
2021/05/11 04:59:14;;;;;;;7.50;6.07;;;;;;;;;;5079266;28;20449;-59
2021/05/11 05:01:46;;;;;;;8.47;7.57;;;;;;;;;;5090183;28;20440;-51
2021/05/11 05:04:15;;;;;;;7.67;6.67;;;;;;;;;;5098606;28;20639;-54
2021/05/11 05:06:47;;;;;;;9.37;7.00;;;;;;;;;;5099128;28;20443;-53
2021/05/11 05:09:14;;;;;;;9.37;7.03;;;;;;;;;;5098107;28;20514;-56
2021/05/11 05:11:41;;;;;;;9.70;7.67;;;;;;;;;;5097960;28;20500;-55
2021/05/11 05:14:20;;;;;;;10.73;7.90;;;;;;;;;;5097320;28;20502;-57
2021/05/11 05:16:47;;;;;;;10.03;7.77;;;;;;;;;;5098139;28;20478;-55
2021/05/11 05:19:14;;;;;;;9.27;8.10;;;;;;;;;;5098000;28;20474;-54
2021/05/11 05:21:42;;;;;;;9.20;8.30;;;;;;;;;;5097870;28;20451;-53
2021/05/11 05:24:13;;;;;;;12.10;9.97;;;;;;;;;;5097689;28;20452;-56
2021/05/11 05:26:40;;;;;;;10.50;9.10;;;;;;;;;;5097566;28;20523;-55
2021/05/11 05:29:20;;;;;;;12.60;9.40;;;;;;;;;;5096052;28;20471;-55
2021/05/11 05:31:54;;;;;;;11.83;9.43;;;;;;;;;;5097469;28;20506;-56
2021/05/11 05:34:20;;;;;;;10.03;8.50;;;;;;;;;;5097803;28;20467;-59
2021/05/11 05:37:09;;;;;;;10.33;8.93;;;;;;;;;;5097830;28;20456;-59
2021/05/11 05:39:40;;;;;;;15.83;9.60;;;;;;;;;;5095319;28;20498;-58
2021/05/11 05:42:07;;;;;;;10.33;9.20;;;;;;;;;;5097107;28;20526;-55
2021/05/11 05:44:39;;;;;;;10.43;8.30;;;;;;;;;;5097216;28;20478;-50
2021/05/11 05:47:06;;;;;;;14.67;9.70;;;;;;;;;;5096908;28;20549;-55
2021/05/11 05:49:39;;;;;;;19.33;9.37;;;;;;;;;;5096140;28;20498;-54
2021/05/11 05:52:24;;;;;;;17.10;9.23;;;;;;;;;;5096833;28;20476;-55
2021/05/11 05:54:54;;;;;;;12.37;7.93;;;;;;;;;;5097261;28;20475;-53
2021/05/11 05:57:20;;;;;;;7.97;6.57;;;;;;;;;;5097923;28;20472;-51
2021/05/11 06:00:06;;;;;;;8.67;6.20;;;;;;;;;;5097598;28;20539;-60
2021/05/11 06:02:35;;;;;;;10.23;6.50;;;;;;;;;;5096844;28;20505;-58
2021/05/11 06:05:02;;;;;;;9.17;4.70;;;;;;;;;;5097482;28;20417;-56
2021/05/11 06:07:36;;;;;;;6.93;3.13;;;;;;;;;;5097485;28;20519;-52
2021/05/11 06:10:04;;;;;;;4.80;3.30;;;;;;;;;;5077089;28;20441;-55
2021/05/11 06:12:35;;;;;;;5.60;2.90;;;;;;;;;;5098084;28;20456;-53
2021/05/11 06:17:54;;;;;;;6.23;2.10;;;;;;;;;;5097548;28;20451;-55
2021/05/11 06:20:25;;;;;;;7.93;2.60;;;;;;;;;;5097423;28;20428;-58
2021/05/11 06:22:52;;;;;;;3.83;2.33;;;;;;;;;;5097906;28;20496;-55
2021/05/11 06:25:19;;;;;;;5.90;3.13;;;;;;;;;;5080108;28;20561;-58
2021/05/11 06:28:03;;;;;;;8.87;4.33;;;;;;;;;;5097611;28;20464;-55
2021/05/11 06:30:30;;;;;;;6.77;3.20;;;;;;;;;;5097385;28;20444;-50
2021/05/11 06:32:57;;;;;;;5.20;2.87;;;;;;;;;;5097087;28;20463;-59
2021/05/11 06:35:37;;;;;;;7.60;3.47;;;;;;;;;;5095990;28;20429;-56
2021/05/11 06:38:04;;;;;;;12.53;2.60;;;;;;;;;;5095951;28;20479;-56
2021/05/11 06:40:34;;;;;;;6.27;2.67;;;;;;;;;;5095688;28;20501;-60
2021/05/11 06:43:03;;;;;;;5.93;2.40;;;;;;;;;;5095318;28;20496;-55
2021/05/11 06:48:17;;;;;;;5.00;2.60;;;;;;;;;;5051769;28;20474;-62
2021/05/11 06:52:41;;;;;;;10.20;3.17;;;;;;;;;;5095779;28;20472;-53
2021/05/11 06:53:37;;;;;;;8.10;3.20;;;;;;;;;;5095557;28;20531;-55
2021/05/11 06:56:23;;;;;;;11.90;5.87;;;;;;;;;;5096172;28;20425;-54
2021/05/11 06:58:50;;;;;;;7.83;3.37;;;;;;;;;;5096801;28;20448;-54
2021/05/11 07:01:20;;;;;;;8.60;3.30;;;;;;;;;;5095998;28;20428;-51
2021/05/11 07:03:49;;;;;;;8.20;2.87;;;;;;;;;;5097039;28;20447;-58
2021/05/11 07:06:17;;;;;;;12.87;3.23;;;;;;;;;;5096350;28;20460;-58
2021/05/11 07:08:47;;;;;;;5.97;2.53;;;;;;;;;;5095638;28;20499;-56
2021/05/11 07:11:28;;;;;;;9.40;3.57;;;;;;;;;;5096550;28;20448;-58
2021/05/11 07:13:55;;;;;;;7.40;3.13;;;;;;;;;;5095673;28;20464;-54
2021/05/11 07:16:22;;;;;;;12.07;3.97;;;;;;;;;;5095575;28;20460;-58
2021/05/11 07:21:52;;;;;;;9.17;3.80;;;;;;;;;;5089321;28;20422;-60
2021/05/11 07:24:24;;;;;;;10.50;3.73;;;;;;;;;;5095838;28;20452;-58
2021/05/11 07:27:15;;;;;;;7.73;4.10;;;;;;;;;;5096143;28;20478;-56
2021/05/11 07:29:48;;;;;;;7.50;4.27;;;;;;;;;;5095945;28;20495;-56
2021/05/11 07:32:15;;;;;;;10.03;5.13;;;;;;;;;;5095633;28;20441;-52
2021/05/11 07:34:45;;;;;;;9.30;4.77;;;;;;;;;;5095668;28;20491;-54
2021/05/11 07:37:12;;;;;;;8.20;4.90;;;;;;;;;;5095730;28;20468;-53
2021/05/11 07:39:50;;;;;;;6.60;4.80;;;;;;;;;;5085331;28;21006;-55
2021/05/11 07:42:18;;;;;;;10.17;5.60;;;;;;;;;;5075709;28;20487;-54
2021/05/11 07:44:48;;;;;;;10.63;5.77;;;;;;;;;;5081598;28;20452;-56
2021/05/11 07:47:19;;;;;;;9.80;5.23;;;;;;;;;;5095224;28;20771;-60
2021/05/11 08:04:14;;;;;;;9.30;5.30;;;;;;;;;;5095455;28;20427;-55
2021/05/11 08:15:05;;;;;;;10.80;5.83;;;;;;;;;;5095473;28;20568;-57
2021/05/11 08:17:38;;;;;;;7.40;5.80;;;;;;;;;;5095138;28;20436;-53
2021/05/11 08:20:18;;;;;;;10.67;6.30;;;;;;;;;;5096104;28;20432;-54
2021/05/11 08:28:35;;;;;;;10.73;6.10;;;;;;;;;;5094297;28;20422;-55
2021/05/11 08:31:05;;;;;;;6.10;5.10;;;;;;;;;;5094741;28;20649;-57
2021/05/11 08:33:33;;;;;;;7.00;5.17;;;;;;;;;;5100083;28;20494;-56
2021/05/11 08:36:03;;;;;;;7.17;6.00;;;;;;;;;;5100784;28;20475;-55
2021/05/11 08:38:30;;;;;;;8.03;5.63;;;;;;;;;;5099570;28;20432;-55
2021/05/11 08:40:58;;;;;;;7.30;6.03;;;;;;;;;;5100367;28;20447;-55
2021/05/11 08:43:25;;;;;;;12.70;6.03;;;;;;;;;;5101375;28;20452;-59
2021/05/11 08:45:54;;;;;;;11.00;7.50;;;;;;;;;;5100560;28;20558;-60
2021/05/11 08:48:21;;;;;;;7.77;6.93;;;;;;;;;;5100084;28;20573;-49
2021/05/11 08:50:54;;;;;;;11.07;7.00;;;;;;;;;;5100835;28;20463;-57
2021/05/11 08:53:43;;;;;;;7.30;6.60;;;;;;;;;;5099970;28;20509;-60
2021/05/11 09:04:57;;;;;;;8.57;7.07;;;;;;;;;;5098528;28;20447;-57
2021/05/11 09:25:10;;;;;;;10.07;8.77;;;;;;;;;;5079794;28;20431;-57
2021/05/11 09:27:45;;;;;;;9.93;6.80;;;;;;;;;;5083061;28;20493;-57
2021/05/11 09:30:35;;;;;;;7.37;6.43;;;;;;;;;;5100650;28;20451;-57
2021/05/11 09:33:21;;;;;;;8.00;6.87;;;;;;;;;;5100289;28;20448;-56
2021/05/11 09:56:37;;;;;;;8.63;6.17;;;;;;;;;;5096595;28;20438;-55
2021/05/11 10:46:50;;;;;;;7.00;5.50;;;;;;;;;;5032935;28;20447;-56
2021/05/11 10:49:27;;;;;;;7.47;4.50;;;;;;;;;;5065227;28;20464;-57
2021/05/11 10:52:15;;;;;;;5.20;4.13;;;;;;;;;;5074072;28;20452;-53
2021/05/11 10:54:50;;;;;;;6.60;4.50;;;;;;;;;;5087168;28;20488;-55
2021/05/11 10:57:26;;;;;;;6.10;4.83;;;;;;;;;;5095449;28;20463;-55
2021/05/11 11:00:02;;;;;;;6.83;5.03;;;;;;;;;;5092702;28;20468;-58
2021/05/11 11:05:33;;;;;;;7.80;5.23;;;;;;;;;;5092891;28;20405;-59
2021/05/11 11:08:00;;;;;;;6.20;4.80;;;;;;;;;;5080463;28;20456;-59
2021/05/11 11:10:31;;;;;;;7.73;5.00;;;;;;;;;;5093106;28;20460;-59
2021/05/11 11:12:58;;;;;;;8.50;5.90;;;;;;;;;;5078989;28;20465;-59
2021/05/11 11:15:28;;;;;;;11.53;6.57;;;;;;;;;;5078978;28;20670;-59
2021/05/11 11:18:34;;;;;;;7.47;5.07;;;;;;;;;;5091434;28;20531;-57
2021/05/11 11:21:19;;;;;;;8.00;5.00;;;;;;;;;;5085442;28;20473;-57
2021/05/11 11:23:54;;;;;;;10.07;6.27;;;;;;;;;;5079718;28;20450;-59
2021/05/11 11:26:25;;;;;;;13.93;6.63;;;;;;;;;;5088847;28;20436;-57
2021/05/11 11:28:59;;;;;;;7.87;6.53;;;;;;;;;;5089160;28;20459;-61
2021/05/11 11:31:33;;;;;;;6.73;5.50;;;;;;;;;;5088487;28;20452;-57
2021/05/11 11:34:17;;;;;;;8.13;6.00;;;;;;;;;;5090432;28;20598;-59
2021/05/11 11:36:58;;;;;;;9.70;7.00;;;;;;;;;;5091732;28;20451;-60
2021/05/11 11:39:29;;;;;;;8.57;6.13;;;;;;;;;;5091836;28;20471;-60
2021/05/11 11:42:07;;;;;;;8.50;6.30;;;;;;;;;;5090814;28;20460;-58
2021/05/11 11:44:37;;;;;;;7.50;5.00;;;;;;;;;;5090893;28;20460;-57
2021/05/11 11:47:24;;;;;;;8.53;5.00;;;;;;;;;;5080133;28;20466;-56
2021/05/11 11:50:03;;;;;;;9.30;5.80;;;;;;;;;;5086205;28;20520;-57
2021/05/11 11:52:32;;;;;;;5.97;4.50;;;;;;;;;;5086659;28;20754;-53
2021/05/11 11:55:22;;;;;;;8.50;5.17;;;;;;;;;;5091246;28;20553;-59
2021/05/11 11:57:46;;;;;;;7.83;5.80;;;;;;;;;;5088072;28;20476;-59
2021/05/11 12:00:14;;;;;;;8.40;6.00;;;;;;;;;;5092792;28;20486;-58
2021/05/11 12:02:58;;;;;;;8.70;6.47;;;;;;;;;;5093611;28;20448;-55
2021/05/11 12:05:29;;;;;;;11.33;7.70;;;;;;;;;;5073385;28;20745;-54
2021/05/11 12:08:04;;;;;;;9.30;7.20;;;;;;;;;;5093833;28;20447;-56
2021/05/11 12:10:33;;;;;;;9.87;5.90;;;;;;;;;;5093302;28;20459;-58
2021/05/11 12:13:32;;;;;;;8.90;7.07;;;;;;;;;;5094261;28;20436;-58
2021/05/11 12:16:15;;;;;;;8.33;6.70;;;;;;;;;;5094343;28;20441;-56
2021/05/11 12:19:04;;;;;;;12.87;7.00;;;;;;;;;;5090909;28;20463;-59
2021/05/11 12:21:32;;;;;;;16.43;8.10;;;;;;;;;;5082277;28;20453;-52
2021/05/11 12:24:08;;;;;;;13.10;8.20;;;;;;;;;;5084083;28;20508;-56
2021/05/11 12:26:35;;;;;;;36.13;25.60;;;;;;;;;;5094200;28;20447;-51
2021/05/11 12:29:09;;;;;;;16.30;12.97;;;;;;;;;;5093965;28;20456;-52
2021/05/11 12:31:39;;;;;;;15.53;10.67;;;;;;;;;;5093963;28;20481;-59
2021/05/11 12:34:17;;;;;;;18.80;12.27;;;;;;;;;;5094425;28;20480;-51
2021/05/11 12:36:48;;;;;;;16.80;13.03;;;;;;;;;;5094283;28;20436;-60
2021/05/11 12:39:21;;;;;;;15.57;13.33;;;;;;;;;;5093044;28;20467;-53
2021/05/11 12:41:49;;;;;;;18.17;14.07;;;;;;;;;;5094378;28;20466;-58
2021/05/11 12:44:29;;;;;;;15.07;12.20;;;;;;;;;;5093656;28;20558;-51
2021/05/11 12:47:02;;;;;;;14.20;12.33;;;;;;;;;;5094111;28;20598;-58
2021/05/11 12:49:29;;;;;;;12.57;11.07;;;;;;;;;;5094161;28;20498;-58
2021/05/11 12:52:20;;;;;;;12.20;11.00;;;;;;;;;;5094296;28;20804;-53
2021/05/11 12:54:50;;;;;;;13.87;10.60;;;;;;;;;;5093725;28;20535;-55
2021/05/11 12:57:32;;;;;;;13.43;11.30;;;;;;;;;;5093985;28;20471;-55
2021/05/11 13:00:15;;;;;;;13.67;11.97;;;;;;;;;;5093358;28;20484;-57
2021/05/11 13:02:48;;;;;;;15.23;11.40;;;;;;;;;;5093931;28;20464;-57
2021/05/11 13:14:17;;;;;;;13.67;10.07;;;;;;;;;;5073556;28;20460;-57
2021/05/11 13:16:53;;;;;;;13.03;9.27;;;;;;;;;;5074374;28;20465;-52
2021/05/11 13:22:23;;;;;;;29.37;26.40;;;;;;;;;;5097715;28;20443;-56
2021/05/11 13:25:16;;;;;;;12.70;11.40;;;;;;;;;;5092982;28;20439;-55
2021/05/11 13:27:50;;;;;;;13.60;10.50;;;;;;;;;;5077373;28;20445;-53
2021/05/11 13:30:30;;;;;;;15.63;10.97;;;;;;;;;;5078030;28;20460;-58
2021/05/11 13:33:11;;;;;;;11.10;8.47;;;;;;;;;;5078573;28;20490;-56
2021/05/11 13:35:42;;;;;;;7.53;5.60;;;;;;;;;;5055208;28;20486;-60
2021/05/11 13:38:16;;;;;;;12.23;5.40;;;;;;;;;;5063972;28;20510;-60
2021/05/11 13:40:54;;;;;;;5.97;5.17;;;;;;;;;;5055389;28;20552;-58
2021/05/11 13:43:21;;;;;;;5.07;4.57;;;;;;;;;;5038877;28;20462;-56
2021/05/11 13:49:05;;;;;;;9.93;5.73;;;;;;;;;;5066558;28;20487;-58
2021/05/11 13:51:39;;;;;;;8.50;5.43;;;;;;;;;;5064755;28;20461;-60
2021/05/11 13:54:09;;;;;;;7.67;6.67;;;;;;;;;;5063141;28;20500;-57
2021/05/11 14:02:35;;;;;;;7.30;6.60;;;;;;;;;;5050340;28;20418;-51
2021/05/11 14:05:16;;;;;;;13.30;7.60;;;;;;;;;;5069167;28;20464;-57
2021/05/11 14:07:47;;;;;;;8.93;7.20;;;;;;;;;;5058060;28;20454;-56
2021/05/11 14:10:42;;;;;;;8.47;6.63;;;;;;;;;;5065488;28;20432;-57
2021/05/11 14:13:19;;;;;;;11.13;8.30;;;;;;;;;;5078276;28;20895;-54
2021/05/11 14:15:54;;;;;;;9.83;7.87;;;;;;;;;;5058590;28;20497;-57
2021/05/11 14:18:27;;;;;;;9.40;8.43;;;;;;;;;;5061069;28;20449;-53
2021/05/11 14:20:55;;;;;;;11.30;10.03;;;;;;;;;;5075936;28;20493;-57
2021/05/11 14:23:25;;;;;;;11.73;8.73;;;;;;;;;;5076080;28;20453;-59
2021/05/11 14:26:04;;;;;;;10.97;9.20;;;;;;;;;;5067081;28;20452;-59
2021/05/11 14:28:31;;;;;;;13.17;10.13;;;;;;;;;;5075141;28;20456;-54
2021/05/11 14:30:58;;;;;;;11.77;9.30;;;;;;;;;;5070197;28;20453;-59
2021/05/11 14:33:34;;;;;;;11.70;9.20;;;;;;;;;;5074557;28;20459;-54
2021/05/11 14:36:01;;;;;;;9.10;7.97;;;;;;;;;;5075094;28;20460;-61
2021/05/11 14:38:29;;;;;;;11.33;9.50;;;;;;;;;;5069808;28;20442;-61
2021/05/11 14:41:14;;;;;;;10.77;8.97;;;;;;;;;;5072162;28;20489;-52
2021/05/11 14:43:43;;;;;;;12.30;9.13;;;;;;;;;;5072854;28;20478;-58
2021/05/11 14:46:24;;;;;;;9.07;8.17;;;;;;;;;;5067687;28;20437;-56
2021/05/11 14:48:52;;;;;;;10.03;9.03;;;;;;;;;;5074607;28;20547;-61
2021/05/11 14:51:19;;;;;;;11.37;9.50;;;;;;;;;;5092642;28;20436;-55
2021/05/11 14:53:55;;;;;;;12.07;9.57;;;;;;;;;;5094804;28;20468;-55
2021/05/11 14:56:22;;;;;;;18.33;10.37;;;;;;;;;;5093111;28;20463;-60
2021/05/11 14:58:49;;;;;;;13.07;9.43;;;;;;;;;;5095091;28;20559;-56
2021/05/11 15:01:35;;;;;;;10.13;8.80;;;;;;;;;;5095553;28;20464;-59
2021/05/11 15:04:02;;;;;;;8.77;6.57;;;;;;;;;;5093894;28;20483;-60
2021/05/11 15:06:29;;;;;;;11.93;7.33;;;;;;;;;;5085178;28;20465;-58
2021/05/11 15:08:59;;;;;;;11.40;8.73;;;;;;;;;;5090502;28;20460;-56
2021/05/11 15:11:27;;;;;;;9.77;7.20;;;;;;;;;;5096325;28;20535;-57
2021/05/11 15:14:35;;;;;;;10.37;8.20;;;;;;;;;;5089055;28;20469;-58
2021/05/11 15:20:03;;;;;;;14.70;8.83;;;;;;;;;;5074303;28;20496;-58
2021/05/11 15:22:31;;;;;;;16.47;10.33;;;;;;;;;;5091604;28;20460;-58
2021/05/11 15:24:59;;;;;;;11.07;8.33;;;;;;;;;;5095089;28;20472;-56
2021/05/11 15:27:26;;;;;;;8.60;7.70;;;;;;;;;;5093457;28;20459;-56
2021/05/11 15:29:53;;;;;;;15.70;8.20;;;;;;;;;;5095142;28;20502;-56
2021/05/11 15:32:42;;;;;;;10.90;7.90;;;;;;;;;;5077095;28;20446;-57
2021/05/11 15:35:33;;;;;;;15.20;8.00;;;;;;;;;;5095114;28;20487;-54
2021/05/11 15:38:02;;;;;;;11.47;7.57;;;;;;;;;;5098058;28;20465;-58
2021/05/11 15:40:30;;;;;;;13.27;8.97;;;;;;;;;;5094732;28;20468;-56
2021/05/11 15:43:00;;;;;;;10.40;7.73;;;;;;;;;;5092708;28;20474;-59
2021/05/11 15:45:27;;;;;;;15.13;10.80;;;;;;;;;;5070383;28;20465;-60
2021/05/11 15:47:59;;;;;;;14.90;8.37;;;;;;;;;;5089999;28;20532;-57
2021/05/11 15:50:30;;;;;;;10.33;7.20;;;;;;;;;;5094125;28;20483;-57
2021/05/11 15:53:01;;;;;;;9.30;6.57;;;;;;;;;;5094444;28;20457;-54
2021/05/11 15:55:29;;;;;;;8.10;5.20;;;;;;;;;;5094383;28;20531;-61
2021/05/11 15:58:03;;;;;;;7.60;4.90;;;;;;;;;;5104655;28;20478;-60
2021/05/11 16:00:30;;;;;;;12.03;6.17;;;;;;;;;;5088898;28;20482;-53
2021/05/11 16:03:03;;;;;;;6.93;4.60;;;;;;;;;;5088901;28;20483;-59
2021/05/11 16:05:34;;;;;;;11.73;5.53;;;;;;;;;;5094548;28;20452;-54
2021/05/11 16:11:05;;;;;;;13.00;7.07;;;;;;;;;;5084383;28;20408;-52
2021/05/11 16:13:39;;;;;;;10.30;6.40;;;;;;;;;;5095271;28;20461;-58
2021/05/11 16:19:13;;;;;;;11.17;6.50;;;;;;;;;;5082117;28;20465;-55
2021/05/11 16:21:40;;;;;;;10.60;7.33;;;;;;;;;;5087874;28;20452;-55
2021/05/11 16:24:39;;;;;;;10.20;7.87;;;;;;;;;;5090781;28;20468;-61
2021/05/11 16:27:10;;;;;;;9.40;7.83;;;;;;;;;;5048495;28;20769;-58
2021/05/11 16:29:40;;;;;;;10.00;8.27;;;;;;;;;;5034182;28;20459;-58
2021/05/11 16:32:24;;;;;;;8.73;7.53;;;;;;;;;;5034350;28;20741;-58
2021/05/11 16:34:52;;;;;;;15.67;9.27;;;;;;;;;;5071428;28;20500;-56
2021/05/11 16:37:21;;;;;;;9.43;8.40;;;;;;;;;;5089837;28;20512;-61
2021/05/11 16:40:00;;;;;;;11.93;9.30;;;;;;;;;;5091537;28;20456;-58
2021/05/11 16:43:08;;;;;;;18.30;9.20;;;;;;;;;;5091848;28;20468;-52
2021/05/11 16:45:36;;;;;;;13.57;8.23;;;;;;;;;;5094425;28;20467;-55
2021/05/11 16:48:15;;;;;;;11.30;8.00;;;;;;;;;;5095633;28;20464;-61
2021/05/11 16:50:55;;;;;;;8.57;6.80;;;;;;;;;;5096696;28;20579;-57
2021/05/11 16:53:22;;;;;;;8.90;6.67;;;;;;;;;;5085069;28;20472;-55
2021/05/11 16:55:49;;;;;;;9.87;6.90;;;;;;;;;;5092329;28;20496;-58
2021/05/11 16:58:21;;;;;;;9.40;7.03;;;;;;;;;;5089071;28;20451;-58
2021/05/11 17:00:58;;;;;;;10.37;6.70;;;;;;;;;;5098110;28;20495;-54
2021/05/11 17:03:48;;;;;;;10.77;6.50;;;;;;;;;;5098215;28;20508;-57
2021/05/11 17:06:23;;;;;;;15.80;8.43;;;;;;;;;;5097807;28;20484;-60
2021/05/11 17:08:51;;;;;;;10.10;7.13;;;;;;;;;;5098389;28;20444;-61
2021/05/11 17:11:26;;;;;;;10.37;7.97;;;;;;;;;;5095603;28;20447;-55
2021/05/11 17:13:53;;;;;;;9.10;6.93;;;;;;;;;;5085496;28;20456;-56
2021/05/11 17:16:20;;;;;;;12.10;6.17;;;;;;;;;;5095712;28;20478;-57
2021/05/11 17:18:58;;;;;;;10.90;6.83;;;;;;;;;;5096458;28;20487;-59
2021/05/11 17:21:26;;;;;;;10.40;6.87;;;;;;;;;;5096808;28;20460;-58
2021/05/11 17:23:53;;;;;;;9.97;6.63;;;;;;;;;;5096653;28;20436;-58
2021/05/11 17:26:20;;;;;;;16.37;7.80;;;;;;;;;;5096105;28;20456;-56
2021/05/11 17:28:50;;;;;;;12.93;7.00;;;;;;;;;;5094120;28;20523;-59
2021/05/11 17:31:18;;;;;;;13.83;7.57;;;;;;;;;;5085544;28;20498;-50
2021/05/11 17:34:04;;;;;;;12.73;7.60;;;;;;;;;;5099462;28;20541;-58
2021/05/11 17:36:32;;;;;;;10.37;6.93;;;;;;;;;;5095741;28;20440;-55
2021/05/11 17:38:59;;;;;;;10.80;6.07;;;;;;;;;;5085401;28;20519;-54
2021/05/11 17:41:45;;;;;;;8.50;6.77;;;;;;;;;;5093679;28;20448;-52
2021/05/11 17:44:14;;;;;;;8.97;6.80;;;;;;;;;;5099195;28;20455;-56
2021/05/11 17:46:43;;;;;;;9.10;6.60;;;;;;;;;;5090675;28;20676;-54
2021/05/11 17:49:28;;;;;;;14.87;7.00;;;;;;;;;;5098137;28;20431;-54
2021/05/11 17:51:55;;;;;;;17.90;11.07;;;;;;;;;;5097411;28;20537;-54
2021/05/11 17:54:22;;;;;;;10.17;6.20;;;;;;;;;;5098258;28;20484;-57
2021/05/11 17:57:00;;;;;;;7.90;6.73;;;;;;;;;;5098474;28;20451;-61
2021/05/11 17:59:27;;;;;;;10.77;7.87;;;;;;;;;;5088677;28;20443;-61
2021/05/11 18:01:54;;;;;;;14.40;7.43;;;;;;;;;;5098434;28;20531;-60
2021/05/11 18:04:31;;;;;;;8.70;6.90;;;;;;;;;;5096338;28;20467;-58
2021/05/11 18:07:02;;;;;;;10.47;6.67;;;;;;;;;;5098351;28;20452;-58
2021/05/11 18:09:29;;;;;;;12.37;7.70;;;;;;;;;;5099183;28;20752;-60
2021/05/11 18:11:56;;;;;;;12.43;8.17;;;;;;;;;;5089527;28;20440;-55
2021/05/11 18:14:23;;;;;;;11.37;6.47;;;;;;;;;;5092907;28;20510;-54
2021/05/11 18:16:51;;;;;;;11.60;8.03;;;;;;;;;;5095876;28;20515;-52
2021/05/11 18:19:18;;;;;;;11.43;6.47;;;;;;;;;;5097389;28;20456;-50
2021/05/11 18:21:45;;;;;;;9.87;7.30;;;;;;;;;;5095495;28;20463;-57
2021/05/11 18:24:26;;;;;;;14.33;6.97;;;;;;;;;;5097244;28;20448;-61
2021/05/11 18:26:56;;;;;;;9.17;6.20;;;;;;;;;;5094466;28;20472;-55
2021/05/11 18:29:22;;;;;;;11.50;6.80;;;;;;;;;;5093826;28;20475;-56
2021/05/11 18:32:08;;;;;;;9.43;6.20;;;;;;;;;;5089269;28;20436;-61
2021/05/11 18:34:37;;;;;;;18.23;6.97;;;;;;;;;;5097132;28;20492;-53
2021/05/11 18:37:10;;;;;;;9.47;6.10;;;;;;;;;;5093934;28;20452;-58
2021/05/11 18:39:45;;;;;;;12.77;7.40;;;;;;;;;;5089983;28;20453;-59
2021/05/11 18:42:13;;;;;;;11.87;6.03;;;;;;;;;;5096268;28;20466;-57
2021/05/11 18:44:42;;;;;;;9.37;6.80;;;;;;;;;;5097185;28;20472;-57
2021/05/11 18:47:17;;;;;;;11.87;5.90;;;;;;;;;;5096897;28;20468;-62
2021/05/11 18:49:45;;;;;;;12.17;6.07;;;;;;;;;;5094914;28;20455;-54
2021/05/11 18:52:15;;;;;;;10.07;7.17;;;;;;;;;;5085631;28;20531;-59
2021/05/11 18:55:18;;;;;;;12.90;7.10;;;;;;;;;;5088195;28;20523;-51
2021/05/11 18:57:47;;;;;;;12.03;6.63;;;;;;;;;;5093628;28;20490;-55